Time;durP1;ratioP1;P1;durP2;ratioP2;P2;SDS_P1;SDS_P2;PMS_P1;PMS_P2;Temp;Humidity;BMP_temperature;BMP_pressure;BME280_temperature;BME280_humidity;BME280_pressure;Samples;Min_cycle;Max_cycle;Signal;HPM_P1;HPM_P2
2023/12/13 00:00:40;;;;;;;2.33;0.95;;;7.20;99.90;;;;;;6304473;22;20420;-57
2023/12/13 00:03:06;;;;;;;7.25;0.80;;;7.20;99.90;;;;;;6305272;22;19999;-56
2023/12/13 00:05:31;;;;;;;1.42;0.50;;;7.20;99.90;;;;;;6304619;22;20003;-53
2023/12/13 00:07:57;;;;;;;0.90;0.57;;;7.30;99.90;;;;;;6304747;22;20003;-54
2023/12/13 00:10:22;;;;;;;1.48;0.60;;;7.30;99.90;;;;;;6305180;22;20026;-55
2023/12/13 00:12:48;;;;;;;1.05;0.93;;;7.30;99.90;;;;;;6304759;22;20010;-59
2023/12/13 00:15:14;;;;;;;3.83;0.73;;;7.30;99.90;;;;;;6298388;22;20466;-55
2023/12/13 00:17:39;;;;;;;1.73;0.50;;;7.40;99.90;;;;;;6304055;22;20004;-55
2023/12/13 00:20:07;;;;;;;1.85;0.80;;;7.40;99.90;;;;;;6305411;22;20011;-58
2023/12/13 00:22:33;;;;;;;2.55;1.05;;;7.40;99.90;;;;;;6305168;22;20087;-54
2023/12/13 00:24:58;;;;;;;1.40;0.60;;;7.40;99.90;;;;;;6303834;22;20034;-57
2023/12/13 00:27:24;;;;;;;2.38;0.60;;;7.40;99.90;;;;;;6303198;22;20007;-55
2023/12/13 00:29:49;;;;;;;4.53;0.60;;;7.30;99.90;;;;;;6305255;22;20010;-62
2023/12/13 00:32:15;;;;;;;1.27;0.60;;;7.30;99.90;;;;;;6305743;22;20002;-58
2023/12/13 00:34:40;;;;;;;1.33;0.80;;;7.30;99.90;;;;;;6304758;22;20087;-58
2023/12/13 00:37:06;;;;;;;2.40;0.50;;;7.30;99.90;;;;;;6304035;22;19995;-63
2023/12/13 00:39:32;;;;;;;0.47;0.40;;;7.30;99.90;;;;;;6305164;22;20359;-56
2023/12/13 00:41:57;;;;;;;6.75;0.55;;;7.30;99.90;;;;;;6303278;22;20022;-56
2023/12/13 00:44:23;;;;;;;3.83;0.60;;;7.30;99.90;;;;;;6305160;22;19999;-54
2023/12/13 00:46:49;;;;;;;1.80;0.50;;;7.30;99.90;;;;;;6304689;22;20003;-56
2023/12/13 00:49:14;;;;;;;1.30;0.73;;;7.30;99.90;;;;;;6304364;22;20003;-59
2023/12/13 00:51:40;;;;;;;7.00;1.00;;;7.20;99.90;;;;;;6305156;22;20003;-56
2023/12/13 00:54:06;;;;;;;3.42;0.60;;;7.20;99.90;;;;;;6304803;22;20442;-56
2023/12/13 00:56:31;;;;;;;2.00;0.57;;;7.20;99.90;;;;;;6303989;22;20517;-55
2023/12/13 00:58:57;;;;;;;8.60;1.10;;;7.10;99.90;;;;;;6304043;22;20068;-55
2023/12/13 01:01:24;;;;;;;1.15;0.65;;;7.10;99.90;;;;;;6304336;22;20002;-56
2023/12/13 01:03:49;;;;;;;2.25;0.75;;;7.10;99.90;;;;;;6304375;22;19995;-57
2023/12/13 01:06:15;;;;;;;1.55;0.80;;;7.10;99.90;;;;;;6304337;22;20326;-56
2023/12/13 01:08:41;;;;;;;4.47;0.70;;;7.10;99.90;;;;;;6305108;22;20023;-57
2023/12/13 01:11:08;;;;;;;0.90;0.63;;;7.10;99.90;;;;;;6304484;22;20002;-54
2023/12/13 01:13:33;;;;;;;1.20;0.70;;;7.10;99.90;;;;;;6305543;22;20358;-59
2023/12/13 01:15:59;;;;;;;3.35;1.02;;;7.10;99.90;;;;;;6277441;22;20003;-57
2023/12/13 01:18:24;;;;;;;5.38;0.85;;;7.20;99.90;;;;;;6304527;22;20007;-57
2023/12/13 01:20:50;;;;;;;2.88;0.70;;;7.20;99.90;;;;;;6304901;22;20369;-57
2023/12/13 01:23:16;;;;;;;5.45;0.75;;;7.20;99.90;;;;;;6304545;22;20038;-56
2023/12/13 01:25:41;;;;;;;1.95;0.75;;;7.20;99.90;;;;;;6275670;22;20003;-56
2023/12/13 01:28:07;;;;;;;7.65;0.85;;;7.20;99.90;;;;;;6304622;22;20007;-58
2023/12/13 01:30:33;;;;;;;3.97;0.80;;;7.20;99.90;;;;;;6304886;22;20006;-54
2023/12/13 01:32:58;;;;;;;1.70;0.88;;;7.20;99.90;;;;;;6302171;22;20007;-55
2023/12/13 01:35:24;;;;;;;1.33;0.90;;;7.20;99.90;;;;;;6305011;22;20043;-59
2023/12/13 01:37:49;;;;;;;0.88;0.55;;;7.20;99.90;;;;;;6304300;22;20092;-59
2023/12/13 01:40:15;;;;;;;4.22;0.60;;;7.30;99.90;;;;;;6303205;22;20040;-56
2023/12/13 01:42:40;;;;;;;5.00;1.23;;;7.30;99.90;;;;;;6303171;22;20042;-56
2023/12/13 01:45:08;;;;;;;1.52;0.50;;;7.30;99.90;;;;;;6304584;22;20083;-59
2023/12/13 01:47:34;;;;;;;1.33;0.70;;;7.30;99.90;;;;;;6305278;22;20003;-58
2023/12/13 01:49:59;;;;;;;2.95;0.60;;;7.30;99.90;;;;;;6304447;22;20060;-55
2023/12/13 01:52:25;;;;;;;3.15;0.90;;;7.30;99.90;;;;;;6303652;22;19999;-59
2023/12/13 01:54:51;;;;;;;2.15;0.50;;;7.40;99.90;;;;;;6304651;22;20052;-55
2023/12/13 01:57:18;;;;;;;7.13;0.90;;;7.40;99.90;;;;;;6304682;22;20022;-58
2023/12/13 01:59:43;;;;;;;2.65;0.68;;;7.50;99.90;;;;;;6303569;22;20007;-58
2023/12/13 02:02:10;;;;;;;5.53;0.60;;;7.50;99.90;;;;;;6303244;22;20704;-58
2023/12/13 02:04:37;;;;;;;2.50;1.20;;;7.60;99.90;;;;;;6304816;22;20022;-56
2023/12/13 02:07:03;;;;;;;2.38;0.82;;;7.60;99.90;;;;;;6302093;22;20000;-59
2023/12/13 02:09:29;;;;;;;2.17;0.98;;;7.60;99.90;;;;;;6303673;22;20003;-56
2023/12/13 02:11:55;;;;;;;3.65;1.05;;;7.70;99.90;;;;;;6303779;22;20125;-58
2023/12/13 02:14:21;;;;;;;1.70;0.60;;;7.70;99.90;;;;;;6276971;22;20458;-55
2023/12/13 02:16:46;;;;;;;6.00;0.70;;;7.70;99.90;;;;;;6304928;22;20011;-53
2023/12/13 02:19:12;;;;;;;1.52;0.93;;;7.70;99.90;;;;;;6304594;22;20022;-56
2023/12/13 02:21:37;;;;;;;2.15;0.50;;;7.60;99.90;;;;;;6304532;22;20003;-55
2023/12/13 02:24:05;;;;;;;9.70;1.48;;;7.60;99.90;;;;;;6304665;22;20014;-53
2023/12/13 02:26:31;;;;;;;1.65;0.80;;;7.60;99.90;;;;;;6304411;22;20145;-56
2023/12/13 02:28:58;;;;;;;1.60;0.68;;;7.60;99.90;;;;;;6305843;22;20009;-57
2023/12/13 02:31:25;;;;;;;3.40;1.23;;;7.50;99.90;;;;;;6303951;22;20007;-56
2023/12/13 02:33:51;;;;;;;1.17;0.70;;;7.50;99.90;;;;;;6306241;22;20056;-55
2023/12/13 02:36:16;;;;;;;2.50;0.88;;;7.50;99.90;;;;;;6306001;22;19995;-58
2023/12/13 02:38:42;;;;;;;2.25;0.60;;;7.50;99.90;;;;;;6306412;22;20007;-55
2023/12/13 02:41:08;;;;;;;3.55;0.68;;;7.50;99.90;;;;;;6305697;22;19999;-60
2023/12/13 02:43:34;;;;;;;3.13;0.82;;;7.50;99.90;;;;;;6278617;22;20018;-56
2023/12/13 02:46:00;;;;;;;6.90;0.65;;;7.50;99.90;;;;;;6277880;22;20431;-56
2023/12/13 02:48:26;;;;;;;2.35;0.75;;;7.50;99.90;;;;;;6306197;22;20062;-55
2023/12/13 02:50:52;;;;;;;3.72;0.80;;;7.50;99.90;;;;;;6306062;22;20003;-55
2023/12/13 02:53:19;;;;;;;3.50;1.15;;;7.50;99.90;;;;;;6278138;22;20038;-56
2023/12/13 02:55:45;;;;;;;3.40;0.70;;;7.50;99.90;;;;;;6306162;22;20336;-56
2023/12/13 02:58:10;;;;;;;3.30;0.70;;;7.60;99.90;;;;;;6306156;22;20022;-55
2023/12/13 03:00:36;;;;;;;4.68;0.82;;;7.50;99.90;;;;;;6278423;22;20007;-54
2023/12/13 03:03:02;;;;;;;8.05;0.90;;;7.60;99.90;;;;;;6305939;22;20327;-56
2023/12/13 03:05:27;;;;;;;2.50;0.65;;;7.60;99.90;;;;;;6306137;22;20453;-55
2023/12/13 03:07:53;;;;;;;2.47;0.73;;;7.60;99.90;;;;;;6305801;22;20598;-55
2023/12/13 03:10:19;;;;;;;5.60;0.98;;;7.60;99.90;;;;;;6278504;22;20011;-57
2023/12/13 03:12:44;;;;;;;2.75;0.63;;;7.60;99.90;;;;;;6306270;22;20004;-54
2023/12/13 03:15:10;;;;;;;3.95;1.05;;;7.60;99.90;;;;;;6306171;22;20003;-56
2023/12/13 03:17:35;;;;;;;5.05;1.20;;;7.60;99.90;;;;;;6306102;22;20555;-55
2023/12/13 03:20:02;;;;;;;3.10;0.88;;;7.60;99.90;;;;;;6305576;22;19996;-56
2023/12/13 03:22:27;;;;;;;1.63;0.80;;;7.60;99.90;;;;;;6305066;22;20003;-54
2023/12/13 03:24:55;;;;;;;6.78;1.15;;;7.70;99.90;;;;;;6304006;22;20007;-58
2023/12/13 03:27:21;;;;;;;2.80;1.10;;;7.60;99.90;;;;;;6305969;22;20316;-60
2023/12/13 03:29:46;;;;;;;8.82;1.20;;;7.60;99.90;;;;;;6305746;22;20061;-54
2023/12/13 03:32:12;;;;;;;4.15;0.98;;;7.60;99.90;;;;;;6305834;22;20472;-59
2023/12/13 03:34:37;;;;;;;2.47;0.90;;;7.60;99.90;;;;;;6305403;22;19999;-58
2023/12/13 03:37:06;;;;;;;4.57;1.02;;;7.70;99.90;;;;;;6305668;22;20011;-57
2023/12/13 03:39:32;;;;;;;4.72;0.88;;;7.60;99.90;;;;;;6306108;22;20403;-54
2023/12/13 03:41:58;;;;;;;7.43;1.00;;;7.60;99.90;;;;;;6304637;22;20006;-56
2023/12/13 03:44:23;;;;;;;3.42;1.30;;;7.70;99.90;;;;;;6304535;22;20007;-57
2023/12/13 03:46:49;;;;;;;3.45;1.00;;;7.60;99.90;;;;;;6305765;22;20003;-55
2023/12/13 03:49:16;;;;;;;4.45;0.98;;;7.60;99.90;;;;;;6305089;22;20042;-55
2023/12/13 03:51:46;;;;;;;2.78;1.15;;;7.60;99.90;;;;;;6305078;22;20013;-54
2023/12/13 03:54:12;;;;;;;3.88;1.20;;;7.50;99.90;;;;;;6305475;22;20006;-57
2023/12/13 03:56:37;;;;;;;2.97;0.85;;;7.50;99.90;;;;;;6305144;22;20060;-59
2023/12/13 03:59:03;;;;;;;4.60;0.68;;;7.50;99.90;;;;;;6305716;22;20007;-57
2023/12/13 04:01:29;;;;;;;4.15;1.10;;;7.50;99.90;;;;;;6276634;22;20072;-57
2023/12/13 04:03:54;;;;;;;2.97;0.98;;;7.50;99.90;;;;;;6305389;22;20003;-57
2023/12/13 04:06:20;;;;;;;1.92;0.82;;;7.40;99.90;;;;;;6305919;22;20022;-55
2023/12/13 04:08:45;;;;;;;9.60;1.05;;;7.40;99.90;;;;;;6278170;22;20056;-54
2023/12/13 04:11:11;;;;;;;1.65;0.73;;;7.40;99.90;;;;;;6304536;22;20309;-57
2023/12/13 04:13:37;;;;;;;5.82;1.17;;;7.40;99.90;;;;;;6305135;22;20312;-55
2023/12/13 04:16:03;;;;;;;8.43;1.73;;;7.40;99.90;;;;;;6304563;22;20078;-54
2023/12/13 04:18:28;;;;;;;4.18;0.82;;;7.40;99.90;;;;;;6304842;22;19999;-59
2023/12/13 04:20:54;;;;;;;6.20;1.50;;;7.40;99.90;;;;;;6304942;22;20008;-56
2023/12/13 04:23:19;;;;;;;10.90;1.70;;;7.40;99.90;;;;;;6305064;22;19995;-54
2023/12/13 04:25:45;;;;;;;12.75;2.80;;;7.40;99.90;;;;;;6304933;22;20013;-53
2023/12/13 04:28:10;;;;;;;10.73;2.50;;;7.40;99.90;;;;;;6304653;22;20407;-56
2023/12/13 04:30:36;;;;;;;4.05;1.90;;;7.30;99.90;;;;;;6305855;22;20006;-53
2023/12/13 04:33:02;;;;;;;7.35;2.83;;;7.20;99.90;;;;;;6305280;22;20003;-55
2023/12/13 04:35:28;;;;;;;5.35;2.38;;;7.20;99.90;;;;;;6304647;22;20007;-59
2023/12/13 04:37:54;;;;;;;7.80;1.80;;;7.10;99.90;;;;;;6305185;22;19996;-58
2023/12/13 04:40:19;;;;;;;8.82;3.72;;;7.00;99.90;;;;;;6304908;22;19995;-55
2023/12/13 04:42:45;;;;;;;5.85;1.10;;;7.00;99.90;;;;;;6303629;22;20023;-52
2023/12/13 04:45:11;;;;;;;4.40;1.35;;;6.90;99.90;;;;;;6305618;22;20003;-52
2023/12/13 04:47:36;;;;;;;10.20;3.05;;;6.90;99.90;;;;;;6305187;22;20010;-56
2023/12/13 04:50:02;;;;;;;11.32;2.20;;;6.80;99.90;;;;;;6305124;22;20037;-51
2023/12/13 04:52:28;;;;;;;7.22;1.80;;;6.70;99.90;;;;;;6303807;22;19999;-59
2023/12/13 04:54:53;;;;;;;6.38;1.50;;;6.60;99.90;;;;;;6304020;22;20018;-59
2023/12/13 04:57:19;;;;;;;4.25;1.67;;;6.50;99.90;;;;;;6304131;22;20426;-58
2023/12/13 04:59:45;;;;;;;8.38;2.50;;;6.50;99.90;;;;;;6303727;22;20019;-56
2023/12/13 05:02:10;;;;;;;16.00;3.13;;;6.50;99.90;;;;;;6304044;22;20383;-56
2023/12/13 05:04:36;;;;;;;6.63;2.80;;;6.50;99.90;;;;;;6303982;22;20007;-52
2023/12/13 05:07:01;;;;;;;42.95;18.55;;;6.50;99.90;;;;;;6304286;22;20067;-55
2023/12/13 05:09:27;;;;;;;61.45;29.00;;;6.60;99.90;;;;;;6303814;22;20050;-60
2023/12/13 05:11:53;;;;;;;52.58;26.83;;;6.70;99.90;;;;;;6303300;22;20030;-55
2023/12/13 05:14:18;;;;;;;54.90;27.88;;;6.70;99.90;;;;;;6303737;22;20078;-54
2023/12/13 05:16:44;;;;;;;53.40;25.52;;;6.80;99.90;;;;;;6303529;22;20018;-59
2023/12/13 05:19:09;;;;;;;47.03;20.17;;;6.80;99.90;;;;;;6305100;22;20075;-60
2023/12/13 05:21:35;;;;;;;34.95;14.43;;;6.90;99.90;;;;;;6304936;22;20559;-60
2023/12/13 05:24:00;;;;;;;29.55;12.32;;;7.00;99.90;;;;;;6304889;22;19995;-59
2023/12/13 05:26:26;;;;;;;15.73;7.47;;;7.00;99.90;;;;;;6304817;22;19999;-60
2023/12/13 05:28:51;;;;;;;16.42;6.18;;;7.00;99.90;;;;;;6304949;22;20399;-59
2023/12/13 05:31:19;;;;;;;16.40;6.70;;;7.10;99.90;;;;;;6305057;22;20058;-59
2023/12/13 05:33:44;;;;;;;13.13;5.25;;;7.10;99.90;;;;;;6303915;22;20120;-59
2023/12/13 05:36:10;;;;;;;11.90;5.13;;;7.10;99.90;;;;;;6304453;22;20029;-60
2023/12/13 05:38:35;;;;;;;10.82;4.32;;;7.10;99.90;;;;;;6304865;22;19995;-59
2023/12/13 05:41:01;;;;;;;12.80;6.20;;;7.20;99.90;;;;;;6304830;22;19995;-60
2023/12/13 05:43:26;;;;;;;15.20;5.25;;;7.20;99.90;;;;;;6305004;22;20726;-60
2023/12/13 05:45:52;;;;;;;9.27;3.28;;;7.20;99.90;;;;;;6304889;22;20007;-58
2023/12/13 05:48:18;;;;;;;5.25;2.25;;;7.10;99.90;;;;;;6304919;22;20011;-60
2023/12/13 05:50:44;;;;;;;21.98;4.32;;;7.20;99.90;;;;;;6304964;22;20447;-60
2023/12/13 05:53:09;;;;;;;15.20;7.15;;;7.20;99.90;;;;;;6304792;22;20003;-60
2023/12/13 05:55:35;;;;;;;16.65;7.05;;;7.20;99.90;;;;;;6304953;22;20076;-60
2023/12/13 05:58:00;;;;;;;16.92;6.35;;;7.30;99.90;;;;;;6304930;22;20030;-60
2023/12/13 06:00:26;;;;;;;11.15;5.78;;;7.20;99.90;;;;;;6306609;22;20053;-60
2023/12/13 06:02:51;;;;;;;16.63;7.30;;;7.20;99.90;;;;;;6306332;22;20728;-59
2023/12/13 06:05:17;;;;;;;22.67;8.73;;;7.20;99.90;;;;;;6306794;22;20060;-59
2023/12/13 06:07:43;;;;;;;29.15;12.07;;;7.20;99.90;;;;;;6306763;22;20049;-60
2023/12/13 06:10:09;;;;;;;29.20;12.07;;;7.10;99.90;;;;;;6306625;22;20026;-60
2023/12/13 06:12:35;;;;;;;22.08;10.20;;;7.10;99.90;;;;;;6306718;22;20431;-60
2023/12/13 06:15:00;;;;;;;23.20;8.32;;;7.00;99.90;;;;;;6278489;22;20343;-60
2023/12/13 06:17:26;;;;;;;12.02;5.57;;;7.00;99.90;;;;;;6305903;22;20010;-59
2023/12/13 06:19:52;;;;;;;12.77;5.88;;;7.00;99.90;;;;;;6306652;22;20010;-60
2023/12/13 06:22:17;;;;;;;10.02;4.88;;;6.90;99.90;;;;;;6306749;22;20435;-60
2023/12/13 06:24:43;;;;;;;9.02;3.70;;;6.90;99.90;;;;;;6306691;22;20014;-59
2023/12/13 06:27:08;;;;;;;15.70;3.08;;;6.90;99.90;;;;;;6306751;22;20029;-59
2023/12/13 06:29:34;;;;;;;7.43;3.70;;;6.80;99.90;;;;;;6306582;22;19999;-60
2023/12/13 06:32:00;;;;;;;13.52;3.08;;;6.80;99.90;;;;;;6306665;22;20452;-60
2023/12/13 06:34:25;;;;;;;15.82;2.70;;;6.80;99.90;;;;;;6306318;22;20489;-59
2023/12/13 06:36:51;;;;;;;4.55;2.42;;;6.80;99.90;;;;;;6306415;22;20002;-60
2023/12/13 06:39:17;;;;;;;7.60;2.17;;;6.80;99.90;;;;;;6306344;22;19999;-60
2023/12/13 06:41:42;;;;;;;12.82;1.80;;;6.80;99.90;;;;;;6306456;22;20007;-58
2023/12/13 06:44:08;;;;;;;4.70;1.55;;;6.90;99.90;;;;;;6306405;22;19995;-57
2023/12/13 06:46:34;;;;;;;5.20;2.10;;;6.90;99.90;;;;;;6305807;22;20348;-59
2023/12/13 06:48:59;;;;;;;5.22;1.42;;;7.00;99.90;;;;;;6305346;22;19996;-59
2023/12/13 06:51:26;;;;;;;18.27;6.95;;;7.00;99.90;;;;;;6306331;22;20070;-60
2023/12/13 06:53:51;;;;;;;15.43;6.50;;;7.00;99.90;;;;;;6306406;22;20003;-59
2023/12/13 06:56:18;;;;;;;73.43;31.85;;;7.10;99.90;;;;;;6306038;22;20504;-59
2023/12/13 06:58:43;;;;;;;76.75;30.20;;;7.10;99.90;;;;;;6306206;22;20435;-60
2023/12/13 07:01:10;;;;;;;91.97;36.15;;;7.10;99.90;;;;;;6306138;22;20079;-59
2023/12/13 07:03:35;;;;;;;60.83;25.63;;;7.10;99.90;;;;;;6306059;22;20327;-60
2023/12/13 07:06:03;;;;;;;43.33;16.20;;;7.10;99.90;;;;;;6305735;22;20014;-62
2023/12/13 07:08:28;;;;;;;25.73;9.23;;;7.10;99.90;;;;;;6304794;22;20003;-60
2023/12/13 07:10:54;;;;;;;16.02;4.63;;;7.00;99.90;;;;;;6305720;22;20003;-60
2023/12/13 07:13:19;;;;;;;9.48;4.93;;;7.10;99.90;;;;;;6305620;22;20084;-60
2023/12/13 07:15:45;;;;;;;11.98;4.95;;;7.00;99.90;;;;;;6305174;22;20017;-58
2023/12/13 07:18:11;;;;;;;14.88;5.20;;;7.00;99.90;;;;;;6305213;22;20054;-60
2023/12/13 07:20:36;;;;;;;24.30;5.90;;;7.10;99.90;;;;;;6305855;22;20006;-59
2023/12/13 07:23:02;;;;;;;12.32;4.97;;;7.10;99.90;;;;;;6305823;22;20450;-60
2023/12/13 07:25:28;;;;;;;50.13;15.68;;;7.10;99.90;;;;;;6305202;22;20014;-59
2023/12/13 07:27:53;;;;;;;71.57;26.02;;;7.10;99.90;;;;;;6305670;22;20007;-58
2023/12/13 07:30:19;;;;;;;72.65;25.52;;;7.10;99.90;;;;;;6304864;22;20035;-59
2023/12/13 07:32:45;;;;;;;51.30;19.98;;;7.10;99.90;;;;;;6305152;22;20082;-59
2023/12/13 07:35:11;;;;;;;44.63;17.98;;;7.10;99.90;;;;;;6305196;22;20423;-57
2023/12/13 07:37:37;;;;;;;39.85;14.57;;;7.10;99.90;;;;;;6305581;22;20053;-60
2023/12/13 07:40:05;;;;;;;21.38;7.53;;;7.10;99.90;;;;;;6304825;22;20431;-59
2023/12/13 07:42:31;;;;;;;14.50;4.82;;;7.20;99.90;;;;;;6305876;22;20022;-60
2023/12/13 07:44:57;;;;;;;9.35;5.13;;;7.20;99.90;;;;;;6305239;22;20475;-59
2023/12/13 07:47:23;;;;;;;12.15;4.38;;;7.10;99.90;;;;;;6305187;22;20046;-59
2023/12/13 07:49:49;;;;;;;25.85;7.40;;;7.10;99.90;;;;;;6304334;22;20381;-58
2023/12/13 07:52:14;;;;;;;31.85;11.27;;;7.10;99.90;;;;;;6305356;22;20003;-59
2023/12/13 07:54:40;;;;;;;42.70;15.40;;;7.10;99.90;;;;;;6304307;22;20082;-59
2023/12/13 07:57:06;;;;;;;45.45;16.30;;;7.10;99.90;;;;;;6305360;22;20086;-60
2023/12/13 07:59:31;;;;;;;25.35;11.13;;;7.10;99.90;;;;;;6305326;22;20049;-58
2023/12/13 08:01:57;;;;;;;16.80;8.77;;;7.10;99.90;;;;;;6305190;22;20007;-57
2023/12/13 08:04:22;;;;;;;23.42;11.52;;;7.10;99.90;;;;;;6305202;22;20005;-59
2023/12/13 08:06:48;;;;;;;17.50;9.65;;;7.20;99.90;;;;;;6305407;22;20015;-58
2023/12/13 08:09:15;;;;;;;22.13;10.10;;;7.30;99.90;;;;;;6305232;22;20010;-60
2023/12/13 08:11:40;;;;;;;16.20;8.63;;;7.30;99.90;;;;;;6305398;22;20064;-60
2023/12/13 08:14:06;;;;;;;13.35;7.03;;;7.40;99.90;;;;;;6305116;22;20369;-60
2023/12/13 08:16:32;;;;;;;12.07;5.90;;;7.40;99.90;;;;;;6304672;22;20010;-59
2023/12/13 08:18:57;;;;;;;16.02;7.55;;;7.40;99.90;;;;;;6305224;22;20034;-62
2023/12/13 08:21:25;;;;;;;29.45;14.20;;;7.40;99.90;;;;;;6304910;22;20003;-60
2023/12/13 08:23:51;;;;;;;27.70;15.20;;;7.40;99.90;;;;;;6305082;22;20443;-60
2023/12/13 08:26:17;;;;;;;23.52;10.35;;;7.40;99.90;;;;;;6305136;22;20027;-59
2023/12/13 08:28:43;;;;;;;25.40;9.63;;;7.40;99.90;;;;;;6305008;22;20011;-59
2023/12/13 08:31:12;;;;;;;22.73;8.13;;;7.40;99.90;;;;;;6305341;22;20486;-60
2023/12/13 08:33:43;;;;;;;28.23;9.82;;;7.40;99.90;;;;;;6305027;22;20015;-59
2023/12/13 08:36:13;;;;;;;22.65;9.60;;;7.40;99.90;;;;;;6304183;22;20070;-59
2023/12/13 08:38:42;;;;;;;19.10;8.55;;;7.40;99.90;;;;;;6304942;22;19995;-59
2023/12/13 08:41:09;;;;;;;16.65;9.10;;;7.40;99.90;;;;;;6304781;22;20045;-59
2023/12/13 08:43:35;;;;;;;17.33;8.05;;;7.40;99.90;;;;;;6305083;22;20074;-60
2023/12/13 08:46:01;;;;;;;14.90;7.38;;;7.40;99.90;;;;;;6304135;22;20394;-60
2023/12/13 08:48:27;;;;;;;31.85;11.15;;;7.40;99.90;;;;;;6304893;22;20056;-59
2023/12/13 08:50:53;;;;;;;48.22;16.17;;;7.40;99.90;;;;;;6305129;22;20436;-60
2023/12/13 08:53:18;;;;;;;48.38;16.48;;;7.40;99.90;;;;;;6304773;22;20022;-60
2023/12/13 08:55:44;;;;;;;27.73;13.15;;;7.40;99.90;;;;;;6304494;22;20007;-60
2023/12/13 08:58:11;;;;;;;24.40;10.27;;;7.40;99.90;;;;;;6304413;22;19999;-59
2023/12/13 09:00:37;;;;;;;14.95;8.48;;;7.40;99.90;;;;;;6305097;22;19999;-58
2023/12/13 09:03:03;;;;;;;10.27;4.28;;;7.40;99.90;;;;;;6305029;22;20320;-57
2023/12/13 09:05:29;;;;;;;10.18;3.13;;;7.40;99.90;;;;;;6304535;22;20007;-58
2023/12/13 09:07:54;;;;;;;10.23;2.90;;;7.50;99.90;;;;;;6303851;22;20454;-59
2023/12/13 09:10:22;;;;;;;9.45;3.92;;;7.50;99.90;;;;;;6304626;22;20010;-60
2023/12/13 09:12:48;;;;;;;20.38;7.43;;;7.50;99.90;;;;;;6304701;22;19999;-58
2023/12/13 09:15:17;;;;;;;23.15;8.32;;;7.60;99.90;;;;;;6303811;22;20209;-59
2023/12/13 09:17:45;;;;;;;20.70;9.23;;;7.60;99.90;;;;;;6304606;22;19999;-59
2023/12/13 09:20:14;;;;;;;21.20;9.07;;;7.60;99.90;;;;;;6303908;22;20335;-59
2023/12/13 09:22:42;;;;;;;22.50;8.93;;;7.70;99.90;;;;;;6304015;22;20391;-60
2023/12/13 09:25:08;;;;;;;26.42;9.55;;;7.70;99.90;;;;;;6303934;22;20000;-60
2023/12/13 09:27:33;;;;;;;21.20;8.40;;;7.70;99.90;;;;;;6304271;22;20006;-60
2023/12/13 09:29:59;;;;;;;22.23;9.07;;;7.70;99.90;;;;;;6304712;22;20415;-59
2023/12/13 09:32:25;;;;;;;20.45;7.63;;;7.70;99.90;;;;;;6304731;22;20424;-57
2023/12/13 09:34:51;;;;;;;28.00;9.68;;;7.70;99.90;;;;;;6304653;22;20003;-60
2023/12/13 09:37:16;;;;;;;29.60;11.48;;;7.70;99.90;;;;;;6306662;22;20022;-60
2023/12/13 09:39:42;;;;;;;18.38;6.68;;;7.70;99.90;;;;;;6307014;22;20000;-60
2023/12/13 09:42:08;;;;;;;18.40;5.90;;;7.70;99.90;;;;;;6306796;22;20316;-59
2023/12/13 09:44:38;;;;;;;23.40;8.10;;;7.80;99.90;;;;;;6279170;22;20014;-60
2023/12/13 09:47:06;;;;;;;12.85;4.55;;;7.80;99.90;;;;;;6306290;22;20548;-59
2023/12/13 09:49:34;;;;;;;11.48;4.57;;;7.90;99.90;;;;;;6306104;22;20003;-59
2023/12/13 09:52:03;;;;;;;7.55;2.33;;;7.90;99.90;;;;;;6306748;22;20332;-59
2023/12/13 09:54:30;;;;;;;9.32;2.50;;;8.00;99.90;;;;;;6306554;22;20003;-60
2023/12/13 09:56:56;;;;;;;8.57;3.85;;;8.10;99.90;;;;;;6305970;22;20378;-59
2023/12/13 09:59:23;;;;;;;11.25;5.70;;;8.30;99.90;;;;;;6306228;22;19999;-59
2023/12/13 10:01:49;;;;;;;10.95;3.83;;;8.40;99.90;;;;;;6306439;22;19995;-59
2023/12/13 10:04:15;;;;;;;7.95;1.67;;;8.50;99.90;;;;;;6306383;22;20003;-60
2023/12/13 10:06:41;;;;;;;4.93;1.40;;;8.70;99.90;;;;;;6306242;22;19995;-59
2023/12/13 10:09:07;;;;;;;6.68;1.50;;;8.90;99.90;;;;;;6306466;22;20064;-60
2023/12/13 10:11:33;;;;;;;6.43;1.70;;;9.10;99.90;;;;;;6305984;22;20479;-59
2023/12/13 10:13:59;;;;;;;13.13;2.70;;;9.20;99.90;;;;;;6306368;22;20073;-60
2023/12/13 10:16:28;;;;;;;3.30;1.25;;;9.40;99.90;;;;;;6305478;22;20039;-58
2023/12/13 10:18:54;;;;;;;7.05;2.95;;;9.50;99.90;;;;;;6306283;22;20002;-59
2023/12/13 10:21:20;;;;;;;9.40;3.00;;;9.70;99.90;;;;;;6305903;22;20078;-59
2023/12/13 10:23:45;;;;;;;9.95;1.98;;;9.80;99.90;;;;;;6305967;22;20026;-59
2023/12/13 10:26:12;;;;;;;9.25;2.97;;;9.90;99.90;;;;;;6306075;22;19999;-59
2023/12/13 10:28:37;;;;;;;7.63;1.40;;;9.90;99.90;;;;;;6306169;22;20026;-59
2023/12/13 10:31:04;;;;;;;6.07;1.45;;;9.90;99.90;;;;;;6306163;22;20424;-59
2023/12/13 10:33:30;;;;;;;2.50;1.20;;;10.00;99.90;;;;;;6304390;22;20003;-62
2023/12/13 10:35:58;;;;;;;6.05;2.40;;;10.10;99.90;;;;;;6305753;22;20015;-58
2023/12/13 10:38:25;;;;;;;8.60;1.70;;;10.00;99.90;;;;;;6305665;22;20147;-59
2023/12/13 10:40:52;;;;;;;7.07;3.45;;;10.10;99.90;;;;;;6305455;22;20003;-60
2023/12/13 10:43:19;;;;;;;6.00;1.92;;;10.00;99.90;;;;;;6296174;22;20393;-58
2023/12/13 10:45:56;;;;;;;3.92;1.50;;;10.00;99.90;;;;;;6278389;22;20335;-59
2023/12/13 10:48:26;;;;;;;3.70;1.65;;;10.20;99.90;;;;;;6278948;22;20324;-58
2023/12/13 10:50:53;;;;;;;2.97;1.02;;;10.30;99.90;;;;;;6305292;22;20036;-59
2023/12/13 10:53:20;;;;;;;4.22;1.38;;;10.40;99.90;;;;;;6305663;22;20003;-59
2023/12/13 10:55:47;;;;;;;7.00;1.38;;;10.50;99.90;;;;;;6305215;22;20011;-60
2023/12/13 10:58:13;;;;;;;3.80;1.25;;;10.50;99.90;;;;;;6305883;22;20003;-59
2023/12/13 11:00:41;;;;;;;13.82;4.82;;;10.40;99.90;;;;;;6305469;22;19999;-57
2023/12/13 11:03:15;;;;;;;15.13;3.58;;;10.30;99.90;;;;;;6304201;22;20010;-60
2023/12/13 11:05:41;;;;;;;9.45;3.05;;;10.10;99.90;;;;;;6304986;22;20471;-59
2023/12/13 11:08:17;;;;;;;9.30;3.42;;;10.00;99.90;;;;;;6305094;22;20030;-60
2023/12/13 11:11:02;;;;;;;6.72;1.75;;;9.90;99.90;;;;;;6304579;22;20360;-60
2023/12/13 11:13:30;;;;;;;11.85;2.80;;;9.90;99.90;;;;;;6305291;22;20027;-60
2023/12/13 11:18:24;;;;;;;4.65;1.70;;;10.10;99.90;;;;;;6272433;22;20027;-55
2023/12/13 11:20:56;;;;;;;7.80;5.28;;;10.20;99.90;;;;;;6272055;22;20004;-56
2023/12/13 11:23:26;;;;;;;21.42;8.73;;;10.40;99.90;;;;;;6271030;22;20008;-53
2023/12/13 11:25:51;;;;;;;11.60;5.63;;;10.50;99.90;;;;;;6272388;22;20423;-57
2023/12/13 11:28:24;;;;;;;14.07;7.90;;;10.50;99.90;;;;;;6273711;22;20010;-54
2023/12/13 11:30:53;;;;;;;29.90;13.20;;;10.50;99.90;;;;;;6272861;22;20003;-57
2023/12/13 11:33:21;;;;;;;27.63;11.68;;;10.60;99.90;;;;;;6273921;22;20007;-53
2023/12/13 11:35:50;;;;;;;10.88;5.30;;;10.60;99.90;;;;;;6271838;22;20004;-57
2023/12/13 11:38:16;;;;;;;7.75;2.42;;;10.70;99.90;;;;;;6273682;22;20011;-57
2023/12/13 11:40:42;;;;;;;7.32;3.88;;;10.60;99.90;;;;;;6270003;22;20062;-56
2023/12/13 11:43:08;;;;;;;7.20;2.40;;;10.50;99.90;;;;;;6273823;22;20008;-55
2023/12/13 11:45:33;;;;;;;5.72;1.90;;;10.50;99.90;;;;;;6274008;22;19999;-56
2023/12/13 11:48:01;;;;;;;6.53;1.33;;;10.50;99.90;;;;;;6273482;22;20435;-55
2023/12/13 11:50:27;;;;;;;5.32;1.30;;;10.30;99.90;;;;;;6272830;22;20011;-55
2023/12/13 11:52:52;;;;;;;4.80;1.10;;;10.30;99.90;;;;;;6272471;22;20012;-55
2023/12/13 11:55:22;;;;;;;8.25;1.95;;;10.30;99.90;;;;;;6272360;22;20031;-53
2023/12/13 11:57:51;;;;;;;6.43;1.33;;;10.30;99.90;;;;;;6272204;22;20023;-56
2023/12/13 12:00:20;;;;;;;6.88;1.33;;;10.30;99.90;;;;;;6245214;22;20030;-57
2023/12/13 12:02:46;;;;;;;6.15;1.77;;;10.20;99.90;;;;;;6273241;22;20027;-56
2023/12/13 12:05:15;;;;;;;5.70;1.80;;;10.30;99.90;;;;;;6272705;22;20007;-54
2023/12/13 12:07:40;;;;;;;2.92;1.20;;;10.30;99.90;;;;;;6270821;22;20015;-57
2023/12/13 12:10:07;;;;;;;6.57;1.38;;;10.30;99.90;;;;;;6272446;22;20011;-56
2023/12/13 12:12:35;;;;;;;3.88;1.80;;;10.40;99.90;;;;;;6272470;22;20424;-54
2023/12/13 12:15:06;;;;;;;4.68;1.10;;;10.40;99.90;;;;;;6272933;22;20007;-55
2023/12/13 12:17:32;;;;;;;3.67;1.08;;;10.40;99.90;;;;;;6271883;22;20394;-55
2023/12/13 12:19:59;;;;;;;5.32;1.35;;;10.40;99.90;;;;;;6272768;22;19995;-54
2023/12/13 12:22:25;;;;;;;7.03;1.35;;;10.60;99.90;;;;;;6270328;22;20010;-56
2023/12/13 12:24:51;;;;;;;8.90;1.48;;;10.70;99.90;;;;;;6271940;22;20003;-55
2023/12/13 12:27:23;;;;;;;6.97;2.38;;;10.80;99.90;;;;;;6272803;22;20489;-55
2023/12/13 12:29:50;;;;;;;3.53;1.27;;;10.80;99.90;;;;;;6273080;22;20449;-57
2023/12/13 12:32:16;;;;;;;6.10;1.52;;;11.00;99.90;;;;;;6272265;22;20011;-53
2023/12/13 12:34:47;;;;;;;8.10;2.25;;;11.10;99.90;;;;;;6272908;22;20094;-55
2023/12/13 12:37:16;;;;;;;4.28;1.45;;;11.00;99.90;;;;;;6272513;22;20409;-56
2023/12/13 12:39:42;;;;;;;5.55;1.92;;;11.00;99.90;;;;;;6272982;22;20086;-58
2023/12/13 12:42:08;;;;;;;3.42;1.08;;;11.00;99.90;;;;;;6272213;22;20023;-54
2023/12/13 12:44:33;;;;;;;3.38;1.20;;;11.20;99.90;;;;;;6272460;22;20053;-56
2023/12/13 12:46:59;;;;;;;2.88;1.65;;;11.20;99.90;;;;;;6272896;22;20016;-57